Time;durP1;ratioP1;P1;durP2;ratioP2;P2;SDS_P1;SDS_P2;PMS_P1;PMS_P2;Temp;Humidity;BMP_temperature;BMP_pressure;BME280_temperature;BME280_humidity;BME280_pressure;Samples;Min_cycle;Max_cycle;Signal;HPM_P1;HPM_P2
2021/10/04 00:00:08;;;;;;;1.13;0.60;;;;;;;;;;5035132;28;20021;-52
2021/10/04 00:02:34;;;;;;;0.60;0.60;;;;;;;;;;5034531;28;20113;-52
2021/10/04 00:05:00;;;;;;;1.55;0.50;;;;;;;;;;5033706;28;20087;-52
2021/10/04 00:07:26;;;;;;;1.08;0.70;;;;;;;;;;5034663;28;20029;-52
2021/10/04 00:09:52;;;;;;;0.57;0.57;;;;;;;;;;5034889;28;20109;-52
2021/10/04 00:12:18;;;;;;;0.90;0.73;;;;;;;;;;5034678;28;20132;-52
2021/10/04 00:14:44;;;;;;;1.13;0.90;;;;;;;;;;5033361;28;20475;-52
2021/10/04 00:17:10;;;;;;;1.10;0.70;;;;;;;;;;5034621;28;20026;-52
2021/10/04 00:19:36;;;;;;;0.38;0.38;;;;;;;;;;5034151;28;20029;-52
2021/10/04 00:22:03;;;;;;;0.95;0.75;;;;;;;;;;5034470;28;20029;-52
2021/10/04 00:24:29;;;;;;;0.43;0.43;;;;;;;;;;5033659;28;20030;-52
2021/10/04 00:26:55;;;;;;;0.88;0.70;;;;;;;;;;5034117;28;20086;-52
2021/10/04 00:29:21;;;;;;;0.73;0.65;;;;;;;;;;5034357;28;20474;-52
2021/10/04 00:31:48;;;;;;;3.33;0.60;;;;;;;;;;5033895;28;20038;-53
2021/10/04 00:34:14;;;;;;;1.20;0.65;;;;;;;;;;5031866;28;20025;-53
2021/10/04 00:36:40;;;;;;;1.23;0.60;;;;;;;;;;5033881;28;20053;-53
2021/10/04 00:39:06;;;;;;;0.60;0.60;;;;;;;;;;5034135;28;20436;-52
2021/10/04 00:41:32;;;;;;;0.98;0.68;;;;;;;;;;5033870;28;20116;-53
2021/10/04 00:43:58;;;;;;;1.55;0.70;;;;;;;;;;5033113;28;20033;-53
2021/10/04 00:46:25;;;;;;;3.50;0.85;;;;;;;;;;5034036;28;20037;-53
2021/10/04 00:48:51;;;;;;;1.00;0.50;;;;;;;;;;5033221;28;20044;-52
2021/10/04 00:51:19;;;;;;;0.85;0.50;;;;;;;;;;5032294;28;20037;-53
2021/10/04 00:53:46;;;;;;;0.95;0.70;;;;;;;;;;5033151;28;20117;-53
2021/10/04 00:56:12;;;;;;;0.60;0.60;;;;;;;;;;5034072;28;20112;-53
2021/10/04 00:58:38;;;;;;;0.47;0.47;;;;;;;;;;5033608;28;20053;-52
2021/10/04 01:01:04;;;;;;;0.52;0.52;;;;;;;;;;5033607;28;20033;-52
2021/10/04 01:03:30;;;;;;;0.50;0.50;;;;;;;;;;5032957;28;20103;-53
2021/10/04 01:05:57;;;;;;;0.95;0.63;;;;;;;;;;5033444;28;20459;-52
2021/10/04 01:08:23;;;;;;;1.45;0.60;;;;;;;;;;5033399;28;20455;-52
2021/10/04 01:10:49;;;;;;;1.13;0.73;;;;;;;;;;5033371;28;20447;-53
2021/10/04 01:13:16;;;;;;;0.38;0.38;;;;;;;;;;5032990;28;20041;-53
2021/10/04 01:15:42;;;;;;;0.68;0.50;;;;;;;;;;5032834;28;20017;-52
2021/10/04 01:18:08;;;;;;;0.82;0.60;;;;;;;;;;5033642;28;20034;-53
2021/10/04 01:20:35;;;;;;;0.65;0.52;;;;;;;;;;5033311;28;20577;-52
2021/10/04 01:23:01;;;;;;;0.70;0.63;;;;;;;;;;5033070;28;20021;-53
2021/10/04 01:25:27;;;;;;;0.55;0.55;;;;;;;;;;5032867;28;20021;-52
2021/10/04 01:27:54;;;;;;;0.50;0.50;;;;;;;;;;5032822;28;20034;-52
2021/10/04 01:30:22;;;;;;;0.68;0.50;;;;;;;;;;5033332;28;20471;-52
2021/10/04 01:32:49;;;;;;;0.55;0.55;;;;;;;;;;5033160;28;20088;-53
2021/10/04 01:35:15;;;;;;;0.95;0.68;;;;;;;;;;5032678;28;20399;-52
2021/10/04 01:37:41;;;;;;;0.63;0.52;;;;;;;;;;5032877;28;20120;-52
2021/10/04 01:40:09;;;;;;;0.93;0.60;;;;;;;;;;5033243;28;20033;-53
2021/10/04 01:42:35;;;;;;;0.52;0.40;;;;;;;;;;5032343;28;20525;-52
2021/10/04 01:45:01;;;;;;;0.75;0.57;;;;;;;;;;5032263;28;20053;-53
2021/10/04 01:47:27;;;;;;;0.98;0.60;;;;;;;;;;5032995;28;20047;-53
2021/10/04 01:49:53;;;;;;;2.17;0.70;;;;;;;;;;5032892;28;20508;-53
2021/10/04 01:52:19;;;;;;;0.50;0.50;;;;;;;;;;5031803;28;20117;-54
2021/10/04 01:54:45;;;;;;;0.47;0.47;;;;;;;;;;5032129;28;20034;-53
2021/10/04 01:57:11;;;;;;;0.88;0.60;;;;;;;;;;5032178;28;20056;-53
2021/10/04 01:59:37;;;;;;;0.95;0.75;;;;;;;;;;5048264;28;20024;-53
2021/10/04 02:02:03;;;;;;;0.50;0.50;;;;;;;;;;5059885;28;20025;-52
2021/10/04 02:04:29;;;;;;;4.00;0.88;;;;;;;;;;5051588;28;20026;-53
2021/10/04 02:06:55;;;;;;;4.40;0.60;;;;;;;;;;5039543;28;20033;-52
2021/10/04 02:09:21;;;;;;;0.50;0.50;;;;;;;;;;5039566;28;20059;-53
2021/10/04 02:11:47;;;;;;;1.27;0.70;;;;;;;;;;5038688;28;20076;-53
2021/10/04 02:14:13;;;;;;;2.70;0.80;;;;;;;;;;5038657;28;20068;-53
2021/10/04 02:16:40;;;;;;;0.65;0.65;;;;;;;;;;5039376;28;20025;-52
2021/10/04 02:19:06;;;;;;;0.63;0.50;;;;;;;;;;5039357;28;20021;-52
2021/10/04 02:21:32;;;;;;;0.47;0.47;;;;;;;;;;5039306;28;20036;-52
2021/10/04 02:23:58;;;;;;;0.60;0.50;;;;;;;;;;5038445;28;20045;-53
2021/10/04 02:26:24;;;;;;;1.38;0.88;;;;;;;;;;5039330;28;20057;-53
2021/10/04 02:28:50;;;;;;;0.63;0.60;;;;;;;;;;5038884;28;20508;-53
2021/10/04 02:31:17;;;;;;;0.93;0.47;;;;;;;;;;5038915;28;20025;-53
2021/10/04 02:33:43;;;;;;;0.57;0.57;;;;;;;;;;5038484;28;20056;-52
2021/10/04 02:36:09;;;;;;;3.25;0.60;;;;;;;;;;5039286;28;20025;-53
2021/10/04 02:38:35;;;;;;;0.93;0.47;;;;;;;;;;5038793;28;20057;-52
2021/10/04 02:41:01;;;;;;;0.60;0.57;;;;;;;;;;5038704;28;20053;-52
2021/10/04 02:43:27;;;;;;;0.50;0.50;;;;;;;;;;5038480;28;20112;-52
2021/10/04 02:45:53;;;;;;;0.43;0.43;;;;;;;;;;5033824;28;20018;-53
2021/10/04 02:48:19;;;;;;;0.50;0.50;;;;;;;;;;5056716;28;20028;-53
2021/10/04 02:50:45;;;;;;;0.43;0.43;;;;;;;;;;5059090;28;20036;-52
2021/10/04 02:53:11;;;;;;;0.73;0.50;;;;;;;;;;5058734;28;20366;-53
2021/10/04 02:55:38;;;;;;;0.52;0.52;;;;;;;;;;5058514;28;20040;-52
2021/10/04 02:58:04;;;;;;;0.30;0.30;;;;;;;;;;5058729;28;20028;-52
2021/10/04 03:00:31;;;;;;;0.50;0.50;;;;;;;;;;5058687;28;20488;-52
2021/10/04 03:02:57;;;;;;;0.57;0.57;;;;;;;;;;5058502;28;20029;-52
2021/10/04 03:05:22;;;;;;;2.45;0.70;;;;;;;;;;5058167;28;20056;-52
2021/10/04 03:07:48;;;;;;;0.65;0.60;;;;;;;;;;5058915;28;20025;-52
2021/10/04 03:10:14;;;;;;;0.85;0.68;;;;;;;;;;5058468;28;20025;-53
2021/10/04 03:12:40;;;;;;;0.40;0.40;;;;;;;;;;5055116;28;20359;-53
2021/10/04 03:15:07;;;;;;;0.32;0.32;;;;;;;;;;5054558;28;20071;-53
2021/10/04 03:17:33;;;;;;;1.52;0.70;;;;;;;;;;5055767;28;20407;-52
2021/10/04 03:19:59;;;;;;;0.73;0.50;;;;;;;;;;5055694;28;20442;-53
2021/10/04 03:22:25;;;;;;;0.40;0.40;;;;;;;;;;5055121;28;20029;-52
2021/10/04 03:24:51;;;;;;;0.25;0.25;;;;;;;;;;5054690;28;20025;-53
2021/10/04 03:27:17;;;;;;;0.82;0.68;;;;;;;;;;5055328;28;20051;-53
2021/10/04 03:29:43;;;;;;;0.73;0.52;;;;;;;;;;5055300;28;20024;-52
2021/10/04 03:32:09;;;;;;;0.57;0.40;;;;;;;;;;5054865;28;20394;-53
2021/10/04 03:34:36;;;;;;;0.47;0.47;;;;;;;;;;5054848;28;20025;-53
2021/10/04 03:37:02;;;;;;;0.40;0.40;;;;;;;;;;5055194;28;20052;-53
2021/10/04 03:39:29;;;;;;;0.40;0.40;;;;;;;;;;5055229;28;20031;-53
2021/10/04 03:41:55;;;;;;;0.98;0.70;;;;;;;;;;5054979;28;20083;-53
2021/10/04 03:44:21;;;;;;;0.40;0.40;;;;;;;;;;5053781;28;20021;-53
2021/10/04 03:46:47;;;;;;;0.60;0.50;;;;;;;;;;5055170;28;20025;-53
2021/10/04 03:49:13;;;;;;;0.70;0.63;;;;;;;;;;5055115;28;20440;-52
2021/10/04 03:51:39;;;;;;;0.55;0.55;;;;;;;;;;5054796;28;20124;-52
2021/10/04 03:54:05;;;;;;;0.50;0.50;;;;;;;;;;5053785;28;20025;-53
2021/10/04 03:56:31;;;;;;;0.50;0.47;;;;;;;;;;5054878;28;20029;-53
2021/10/04 03:58:57;;;;;;;0.65;0.50;;;;;;;;;;5054140;28;20040;-52
2021/10/04 04:01:23;;;;;;;1.23;0.70;;;;;;;;;;5054894;28;20118;-53
2021/10/04 04:03:52;;;;;;;1.70;0.93;;;;;;;;;;5053542;28;20068;-52
2021/10/04 04:06:18;;;;;;;1.27;0.60;;;;;;;;;;5054670;28;20036;-53
2021/10/04 04:08:44;;;;;;;0.73;0.50;;;;;;;;;;5054811;28;20036;-53
2021/10/04 04:11:10;;;;;;;0.50;0.50;;;;;;;;;;5054321;28;20108;-53
2021/10/04 04:13:36;;;;;;;0.60;0.60;;;;;;;;;;5053484;28;20348;-52
2021/10/04 04:16:04;;;;;;;0.98;0.80;;;;;;;;;;5054396;28;20518;-52
2021/10/04 04:18:30;;;;;;;1.60;0.98;;;;;;;;;;5054512;28;20033;-53
2021/10/04 04:20:56;;;;;;;0.50;0.50;;;;;;;;;;5054662;28;20024;-52
2021/10/04 04:23:22;;;;;;;1.23;0.60;;;;;;;;;;5053503;28;20340;-52
2021/10/04 04:25:48;;;;;;;2.22;0.70;;;;;;;;;;5053730;28;20101;-52
2021/10/04 04:28:14;;;;;;;0.80;0.80;;;;;;;;;;5053988;28;20498;-52
2021/10/04 04:30:40;;;;;;;0.52;0.52;;;;;;;;;;5054044;28;20029;-52
2021/10/04 04:33:06;;;;;;;0.77;0.70;;;;;;;;;;5054237;28;20147;-52
2021/10/04 04:35:32;;;;;;;1.08;0.65;;;;;;;;;;5053453;28;20074;-52
2021/10/04 04:37:58;;;;;;;0.77;0.65;;;;;;;;;;5053895;28;20527;-52
2021/10/04 04:40:24;;;;;;;1.95;0.65;;;;;;;;;;5053822;28;20029;-52
2021/10/04 04:42:50;;;;;;;5.15;0.80;;;;;;;;;;5053627;28;20155;-52
2021/10/04 04:45:18;;;;;;;0.70;0.70;;;;;;;;;;5053445;28;20021;-52
2021/10/04 04:47:45;;;;;;;3.63;1.00;;;;;;;;;;5053562;28;20047;-53
2021/10/04 04:50:11;;;;;;;0.85;0.50;;;;;;;;;;5054037;28;20021;-52
2021/10/04 04:52:37;;;;;;;0.95;0.80;;;;;;;;;;5053567;28;20033;-52
2021/10/04 04:55:04;;;;;;;1.38;0.98;;;;;;;;;;5052908;28;20030;-53
2021/10/04 04:57:30;;;;;;;0.93;0.85;;;;;;;;;;5053397;28;20028;-52
2021/10/04 04:59:58;;;;;;;0.60;0.60;;;;;;;;;;5053447;28;20032;-53
2021/10/04 05:02:24;;;;;;;3.17;0.60;;;;;;;;;;5053942;28;20029;-52
2021/10/04 05:04:50;;;;;;;1.15;0.70;;;;;;;;;;5052878;28;20025;-52
2021/10/04 05:07:16;;;;;;;0.93;0.80;;;;;;;;;;5053643;28;20112;-52
2021/10/04 05:09:42;;;;;;;1.10;0.90;;;;;;;;;;5053304;28;20443;-52
2021/10/04 05:12:08;;;;;;;3.33;1.10;;;;;;;;;;5053400;28;20036;-53
2021/10/04 05:14:34;;;;;;;2.50;0.93;;;;;;;;;;5052765;28;20033;-52
2021/10/04 05:17:00;;;;;;;1.10;1.00;;;;;;;;;;5053089;28;20501;-52
2021/10/04 05:19:26;;;;;;;0.80;0.80;;;;;;;;;;5053239;28;20017;-53
2021/10/04 05:21:52;;;;;;;1.00;0.90;;;;;;;;;;5053094;28;20442;-52
2021/10/04 05:24:18;;;;;;;0.77;0.77;;;;;;;;;;5051985;28;20455;-53
2021/10/04 05:26:44;;;;;;;0.85;0.80;;;;;;;;;;5052772;28;20474;-52
2021/10/04 05:29:10;;;;;;;0.90;0.90;;;;;;;;;;5052733;28;20021;-52
2021/10/04 05:31:36;;;;;;;0.80;0.80;;;;;;;;;;5053160;28;20048;-52
2021/10/04 05:34:03;;;;;;;1.45;1.15;;;;;;;;;;5051426;28;20032;-52
2021/10/04 05:36:29;;;;;;;0.60;0.60;;;;;;;;;;5053215;28;20085;-52
2021/10/04 05:38:55;;;;;;;1.60;1.02;;;;;;;;;;5052566;28;20518;-52
2021/10/04 05:41:21;;;;;;;1.92;0.93;;;;;;;;;;5052817;28;20116;-52
2021/10/04 05:43:47;;;;;;;1.77;0.70;;;;;;;;;;5052187;28;20036;-52
2021/10/04 05:46:13;;;;;;;1.42;0.90;;;;;;;;;;5053297;28;20021;-52
2021/10/04 05:48:39;;;;;;;1.40;1.00;;;;;;;;;;5053033;28;20075;-52
2021/10/04 05:51:06;;;;;;;0.75;0.75;;;;;;;;;;5052860;28;20394;-52
2021/10/04 05:53:32;;;;;;;1.77;0.90;;;;;;;;;;5052099;28;20105;-52
2021/10/04 05:55:58;;;;;;;1.25;0.75;;;;;;;;;;5052517;28;20044;-52
2021/10/04 05:58:24;;;;;;;0.98;0.80;;;;;;;;;;5052765;28;20035;-52
2021/10/04 06:00:51;;;;;;;0.85;0.85;;;;;;;;;;5052726;28;20037;-52
2021/10/04 06:03:17;;;;;;;1.05;0.88;;;;;;;;;;5052634;28;20033;-52
2021/10/04 06:05:43;;;;;;;1.20;0.95;;;;;;;;;;5052081;28;20118;-52
2021/10/04 06:08:09;;;;;;;0.95;0.88;;;;;;;;;;5052387;28;20036;-52
2021/10/04 06:10:35;;;;;;;0.82;0.82;;;;;;;;;;5052903;28;20029;-52
2021/10/04 06:13:02;;;;;;;1.25;0.85;;;;;;;;;;5052493;28;20356;-52
2021/10/04 06:15:28;;;;;;;0.88;0.80;;;;;;;;;;5051793;28;20104;-52
2021/10/04 06:17:55;;;;;;;0.98;0.80;;;;;;;;;;5052850;28;20045;-52
2021/10/04 06:20:21;;;;;;;1.17;0.70;;;;;;;;;;5052340;28;20029;-52
2021/10/04 06:22:47;;;;;;;0.80;0.70;;;;;;;;;;5052457;28;20056;-53
2021/10/04 06:25:15;;;;;;;1.25;0.90;;;;;;;;;;5051805;28;20052;-52
2021/10/04 06:27:41;;;;;;;0.63;0.60;;;;;;;;;;5052439;28;20043;-52
2021/10/04 06:30:08;;;;;;;2.92;1.25;;;;;;;;;;5052337;28;20033;-52
2021/10/04 06:32:34;;;;;;;0.90;0.90;;;;;;;;;;5052306;28;20083;-52
2021/10/04 06:35:00;;;;;;;0.75;0.75;;;;;;;;;;5051826;28;20025;-52
2021/10/04 06:37:26;;;;;;;1.25;0.88;;;;;;;;;;5053015;28;20454;-53
2021/10/04 06:39:52;;;;;;;1.63;0.90;;;;;;;;;;5051903;28;20024;-52
2021/10/04 06:42:18;;;;;;;0.80;0.80;;;;;;;;;;5052341;28;20037;-52
2021/10/04 06:44:44;;;;;;;0.80;0.80;;;;;;;;;;5051540;28;20037;-53
2021/10/04 06:47:10;;;;;;;1.45;0.90;;;;;;;;;;5055771;28;20021;-52
2021/10/04 06:49:36;;;;;;;1.05;1.02;;;;;;;;;;5055882;28;20046;-52
2021/10/04 06:52:03;;;;;;;2.03;0.90;;;;;;;;;;5055632;28;20466;-52
2021/10/04 06:54:30;;;;;;;1.00;0.90;;;;;;;;;;5055483;28;20350;-52
2021/10/04 06:56:56;;;;;;;1.52;0.93;;;;;;;;;;5056203;28;20035;-52
2021/10/04 06:59:22;;;;;;;1.80;1.10;;;;;;;;;;5055936;28;20021;-52
2021/10/04 07:01:48;;;;;;;1.60;0.90;;;;;;;;;;5055788;28;20045;-52
2021/10/04 07:04:14;;;;;;;1.00;0.82;;;;;;;;;;5055189;28;20052;-53
2021/10/04 07:06:40;;;;;;;1.00;0.90;;;;;;;;;;5055495;28;20029;-52
2021/10/04 07:09:06;;;;;;;3.30;1.45;;;;;;;;;;5055676;28;20235;-52
2021/10/04 07:11:32;;;;;;;1.42;1.17;;;;;;;;;;5055835;28;20044;-52
2021/10/04 07:13:58;;;;;;;1.30;0.98;;;;;;;;;;5055026;28;20051;-53
2021/10/04 07:16:24;;;;;;;1.75;1.48;;;;;;;;;;5055702;28;20022;-52
2021/10/04 07:18:50;;;;;;;2.13;1.45;;;;;;;;;;5055292;28;20354;-52
2021/10/04 07:21:16;;;;;;;1.25;0.88;;;;;;;;;;5055395;28;20508;-52
2021/10/04 07:23:44;;;;;;;1.50;1.10;;;;;;;;;;5054533;28;20025;-52
2021/10/04 07:26:10;;;;;;;1.45;1.35;;;;;;;;;;5055463;28;20474;-53
2021/10/04 07:28:37;;;;;;;2.75;1.88;;;;;;;;;;5055333;28;20066;-52
2021/10/04 07:31:03;;;;;;;2.33;1.65;;;;;;;;;;5055110;28;20029;-52
2021/10/04 07:33:29;;;;;;;1.90;1.70;;;;;;;;;;5054388;28;20040;-52
2021/10/04 07:35:55;;;;;;;3.33;1.75;;;;;;;;;;5054802;28;20462;-52
2021/10/04 07:38:22;;;;;;;3.25;1.50;;;;;;;;;;5055611;28;20037;-52
2021/10/04 07:40:48;;;;;;;2.05;1.20;;;;;;;;;;5055334;28;20045;-52
2021/10/04 07:43:15;;;;;;;1.60;1.50;;;;;;;;;;5055055;28;20017;-52
2021/10/04 07:45:41;;;;;;;1.30;1.17;;;;;;;;;;5053901;28;20056;-52
2021/10/04 07:48:07;;;;;;;1.77;1.25;;;;;;;;;;5054627;28;20058;-52
2021/10/04 07:50:34;;;;;;;2.70;1.50;;;;;;;;;;5055233;28;20070;-52
2021/10/04 07:53:00;;;;;;;2.40;1.50;;;;;;;;;;5055122;28;20036;-52
2021/10/04 07:55:26;;;;;;;1.80;1.15;;;;;;;;;;5054118;28;20028;-52
2021/10/04 07:57:52;;;;;;;1.83;1.50;;;;;;;;;;5042404;28;20067;-52
2021/10/04 08:00:19;;;;;;;2.03;1.48;;;;;;;;;;5048358;28;20067;-52
2021/10/04 08:02:45;;;;;;;1.48;1.10;;;;;;;;;;5054395;28;20036;-53
2021/10/04 08:05:11;;;;;;;1.35;0.90;;;;;;;;;;5052888;28;20028;-53
2021/10/04 08:07:38;;;;;;;0.98;0.90;;;;;;;;;;5034575;28;20104;-52
2021/10/04 08:10:05;;;;;;;1.30;1.10;;;;;;;;;;5034616;28;20025;-52
2021/10/04 08:12:31;;;;;;;0.85;0.80;;;;;;;;;;5034892;28;20084;-52
2021/10/04 08:14:57;;;;;;;0.70;0.70;;;;;;;;;;5033639;28;20026;-52
2021/10/04 08:17:23;;;;;;;0.70;0.70;;;;;;;;;;5034212;28;20041;-52
2021/10/04 08:19:50;;;;;;;0.95;0.60;;;;;;;;;;5034437;28;20026;-52
2021/10/04 08:22:16;;;;;;;0.68;0.63;;;;;;;;;;5034536;28;20026;-52
2021/10/04 08:24:43;;;;;;;1.02;0.80;;;;;;;;;;5033755;28;20030;-52
2021/10/04 08:27:09;;;;;;;1.60;0.63;;;;;;;;;;5034440;28;20491;-52
2021/10/04 08:29:36;;;;;;;0.60;0.60;;;;;;;;;;5034053;28;20033;-52
2021/10/04 08:32:02;;;;;;;1.83;0.90;;;;;;;;;;5033404;28;20387;-53
2021/10/04 08:34:28;;;;;;;2.67;0.80;;;;;;;;;;5033567;28;20436;-52
2021/10/04 08:36:54;;;;;;;1.25;0.70;;;;;;;;;;5034119;28;20030;-52
2021/10/04 08:39:20;;;;;;;0.57;0.57;;;;;;;;;;5034557;28;20494;-52
2021/10/04 08:41:46;;;;;;;1.02;0.63;;;;;;;;;;5033946;28;20029;-52
2021/10/04 08:44:13;;;;;;;0.70;0.63;;;;;;;;;;5033316;28;20029;-53
2021/10/04 08:46:41;;;;;;;0.70;0.68;;;;;;;;;;5033895;28;20025;-52
2021/10/04 08:49:07;;;;;;;0.60;0.60;;;;;;;;;;5034015;28;20391;-52
2021/10/04 08:51:34;;;;;;;0.50;0.50;;;;;;;;;;5033885;28;20055;-53
2021/10/04 08:54:01;;;;;;;0.73;0.73;;;;;;;;;;5032969;28;20423;-52
2021/10/04 08:56:27;;;;;;;2.67;0.47;;;;;;;;;;5033732;28;20435;-52
2021/10/04 08:58:53;;;;;;;2.72;0.90;;;;;;;;;;5033720;28;20028;-52
2021/10/04 09:01:22;;;;;;;0.40;0.40;;;;;;;;;;5033132;28;20024;-52
2021/10/04 09:03:50;;;;;;;0.40;0.40;;;;;;;;;;5032840;28;20033;-52
2021/10/04 09:06:23;;;;;;;1.55;0.50;;;;;;;;;;5033764;28;20112;-52
2021/10/04 09:08:56;;;;;;;0.30;0.30;;;;;;;;;;5033945;28;20026;-53
2021/10/04 09:11:38;;;;;;;0.77;0.60;;;;;;;;;;5033124;28;20419;-53
2021/10/04 09:14:08;;;;;;;0.40;0.40;;;;;;;;;;5032842;28;20024;-53
2021/10/04 09:16:52;;;;;;;0.50;0.50;;;;;;;;;;5033664;28;20026;-52
2021/10/04 09:19:19;;;;;;;0.40;0.40;;;;;;;;;;5033180;28;20455;-52
2021/10/04 09:22:05;;;;;;;0.40;0.40;;;;;;;;;;5033356;28;20033;-52
2021/10/04 09:24:31;;;;;;;0.40;0.40;;;;;;;;;;5032556;28;20479;-52
2021/10/04 09:26:57;;;;;;;2.90;0.40;;;;;;;;;;5033483;28;20026;-52
2021/10/04 09:29:25;;;;;;;0.40;0.40;;;;;;;;;;5033152;28;20036;-52
2021/10/04 09:31:51;;;;;;;0.80;0.80;;;;;;;;;;5033072;28;20400;-52
2021/10/04 09:34:18;;;;;;;0.47;0.47;;;;;;;;;;5032319;28;20061;-52
2021/10/04 09:36:57;;;;;;;0.50;0.50;;;;;;;;;;5032922;28;20112;-52
2021/10/04 09:39:30;;;;;;;0.80;0.50;;;;;;;;;;5033338;28;20028;-52
2021/10/04 09:41:56;;;;;;;0.40;0.40;;;;;;;;;;5033181;28;20362;-52
2021/10/04 09:44:23;;;;;;;0.50;0.50;;;;;;;;;;5032302;28;20443;-52
2021/10/04 09:46:49;;;;;;;0.65;0.65;;;;;;;;;;5032646;28;20497;-52
2021/10/04 09:49:15;;;;;;;1.00;0.57;;;;;;;;;;5032635;28;20471;-52
2021/10/04 09:51:53;;;;;;;0.63;0.40;;;;;;;;;;5032755;28;20033;-52
2021/10/04 09:54:19;;;;;;;0.40;0.40;;;;;;;;;;5032081;28;20025;-52
2021/10/04 09:56:45;;;;;;;1.10;0.75;;;;;;;;;;5033001;28;20025;-52
2021/10/04 09:59:11;;;;;;;0.30;0.30;;;;;;;;;;5033007;28;20021;-52
2021/10/04 10:01:38;;;;;;;0.32;0.32;;;;;;;;;;5032406;28;20096;-52
2021/10/04 10:04:04;;;;;;;0.88;0.80;;;;;;;;;;5031788;28;20478;-52
2021/10/04 10:06:33;;;;;;;0.30;0.30;;;;;;;;;;5032932;28;20026;-52
2021/10/04 10:08:59;;;;;;;0.40;0.40;;;;;;;;;;5033178;28;20044;-52
2021/10/04 10:11:31;;;;;;;0.40;0.40;;;;;;;;;;5032379;28;20108;-52
2021/10/04 10:13:57;;;;;;;0.50;0.50;;;;;;;;;;5032126;28;20033;-52
2021/10/04 10:16:36;;;;;;;0.35;0.35;;;;;;;;;;5032553;28;20351;-52
2021/10/04 10:19:07;;;;;;;0.30;0.30;;;;;;;;;;5032896;28;20040;-52
2021/10/04 10:21:34;;;;;;;1.17;0.47;;;;;;;;;;5034938;28;20029;-52
2021/10/04 10:24:06;;;;;;;1.38;0.50;;;;;;;;;;5035759;28;20367;-52
2021/10/04 10:26:35;;;;;;;1.42;0.60;;;;;;;;;;5036712;28;20390;-53
2021/10/04 10:29:20;;;;;;;0.57;0.57;;;;;;;;;;5036717;28;20041;-52
2021/10/04 10:31:55;;;;;;;0.60;0.50;;;;;;;;;;5036528;28;20091;-52
2021/10/04 10:34:30;;;;;;;0.88;0.55;;;;;;;;;;5035989;28;20036;-53
2021/10/04 10:36:59;;;;;;;2.47;0.50;;;;;;;;;;5036062;28;20048;-52
2021/10/04 10:39:32;;;;;;;1.33;0.43;;;;;;;;;;5036760;28;20025;-52
2021/10/04 10:42:12;;;;;;;0.20;0.20;;;;;;;;;;5036075;28;20402;-52
2021/10/04 10:44:56;;;;;;;0.32;0.32;;;;;;;;;;5035304;28;20048;-52
2021/10/04 10:47:37;;;;;;;0.35;0.35;;;;;;;;;;5036009;28;20136;-52
2021/10/04 10:50:07;;;;;;;0.40;0.40;;;;;;;;;;5036303;28;20029;-52
2021/10/04 10:52:33;;;;;;;;;;;;;;;;;;5036368;28;20033;-52
2021/10/04 10:55:01;;;;;;;2.47;0.40;;;;;;;;;;5035505;28;19912;-52
2021/10/04 10:57:59;;;;;;;0.50;0.50;;;;;;;;;;5036278;28;20096;-52
2021/10/04 11:00:30;;;;;;;0.52;0.45;;;;;;;;;;5014020;28;20450;-52
2021/10/04 11:03:16;;;;;;;0.30;0.30;;;;;;;;;;5013448;28;20444;-52
2021/10/04 11:05:42;;;;;;;0.38;0.38;;;;;;;;;;5012957;28;20464;-52
2021/10/04 11:08:08;;;;;;;0.30;0.30;;;;;;;;;;5013458;28;20105;-52
2021/10/04 11:10:55;;;;;;;0.43;0.40;;;;;;;;;;5013466;28;20088;-52
2021/10/04 11:13:34;;;;;;;0.30;0.30;;;;;;;;;;5013276;28;20078;-52
2021/10/04 11:16:01;;;;;;;0.30;0.30;;;;;;;;;;5024339;28;20149;-52
2021/10/04 11:18:36;;;;;;;0.20;0.20;;;;;;;;;;5032739;28;20026;-52
2021/10/04 11:21:03;;;;;;;0.52;0.40;;;;;;;;;;5032997;28;20022;-53
2021/10/04 11:23:29;;;;;;;0.30;0.30;;;;;;;;;;5032366;28;20037;-52
2021/10/04 11:25:57;;;;;;;0.30;0.30;;;;;;;;;;5033074;28;20116;-52
2021/10/04 11:28:35;;;;;;;0.40;0.40;;;;;;;;;;5032927;28;20040;-52
2021/10/04 11:31:02;;;;;;;2.65;1.70;;;;;;;;;;5032972;28;20029;-52
2021/10/04 11:33:30;;;;;;;0.32;0.32;;;;;;;;;;5030963;28;20051;-52
2021/10/04 11:36:00;;;;;;;0.60;0.50;;;;;;;;;;5033544;28;20041;-52
2021/10/04 11:38:27;;;;;;;0.40;0.40;;;;;;;;;;5035143;28;20068;-52
2021/10/04 11:40:54;;;;;;;1.55;0.70;;;;;;;;;;5035363;28;20025;-53
2021/10/04 11:43:20;;;;;;;0.30;0.30;;;;;;;;;;5035167;28;20539;-52
2021/10/04 11:45:47;;;;;;;0.52;0.50;;;;;;;;;;5033756;28;20029;-52
2021/10/04 11:48:26;;;;;;;0.40;0.40;;;;;;;;;;5035269;28;20075;-52
2021/10/04 11:50:53;;;;;;;0.40;0.40;;;;;;;;;;5034843;28;20431;-52
2021/10/04 11:53:19;;;;;;;0.35;0.35;;;;;;;;;;5035186;28;20171;-52
2021/10/04 11:55:56;;;;;;;1.75;0.60;;;;;;;;;;5034311;28;20014;-52
2021/10/04 11:58:22;;;;;;;0.50;0.50;;;;;;;;;;5035318;28;20026;-52
2021/10/04 12:00:49;;;;;;;0.45;0.45;;;;;;;;;;5035135;28;20025;-52
2021/10/04 12:03:44;;;;;;;0.65;0.65;;;;;;;;;;5034650;28;20960;-53
2021/10/04 12:06:10;;;;;;;1.42;0.73;;;;;;;;;;5012426;28;20125;-52
2021/10/04 12:08:37;;;;;;;0.93;0.70;;;;;;;;;;5012361;28;20061;-52
2021/10/04 12:11:07;;;;;;;0.40;0.40;;;;;;;;;;5012087;28;20041;-52
2021/10/04 12:13:34;;;;;;;0.30;0.30;;;;;;;;;;5011981;28;20456;-52
2021/10/04 12:16:05;;;;;;;1.13;0.60;;;;;;;;;;5012380;28;20276;-52
2021/10/04 12:18:32;;;;;;;2.38;1.40;;;;;;;;;;5012178;28;20364;-53
2021/10/04 12:21:14;;;;;;;1.27;0.65;;;;;;;;;;5011940;28;20029;-52
2021/10/04 12:23:40;;;;;;;2.10;1.50;;;;;;;;;;5011290;28;20415;-52
2021/10/04 12:26:10;;;;;;;0.57;0.57;;;;;;;;;;5012148;28;20021;-52
2021/10/04 12:28:46;;;;;;;1.83;1.30;;;;;;;;;;5012047;28;20096;-52
2021/10/04 12:31:28;;;;;;;1.35;0.70;;;;;;;;;;5012122;28;20434;-52
2021/10/04 12:33:54;;;;;;;0.40;0.40;;;;;;;;;;5011028;28;20030;-52
2021/10/04 12:36:20;;;;;;;0.30;0.30;;;;;;;;;;5012022;28;20364;-52
2021/10/04 12:38:54;;;;;;;0.47;0.45;;;;;;;;;;5011887;28;20060;-52
2021/10/04 12:41:20;;;;;;;1.17;0.85;;;;;;;;;;5012115;28;20026;-52
2021/10/04 12:43:46;;;;;;;0.77;0.70;;;;;;;;;;5032601;28;20076;-52
2021/10/04 12:46:16;;;;;;;0.77;0.52;;;;;;;;;;5033467;28;20030;-52
2021/10/04 12:48:43;;;;;;;0.43;0.43;;;;;;;;;;5033449;28;20443;-52
2021/10/04 12:51:20;;;;;;;0.30;0.30;;;;;;;;;;5033893;28;20033;-52
2021/10/04 12:53:47;;;;;;;1.50;0.60;;;;;;;;;;5033299;28;20092;-52
2021/10/04 12:56:14;;;;;;;0.30;0.30;;;;;;;;;;5033911;28;20030;-52
2021/10/04 12:58:40;;;;;;;0.63;0.60;;;;;;;;;;5033700;28;20032;-52
2021/10/04 13:01:11;;;;;;;0.30;0.30;;;;;;;;;;5033668;28;20021;-53
2021/10/04 13:03:50;;;;;;;0.40;0.40;;;;;;;;;;5032710;28;20021;-52
2021/10/04 13:06:16;;;;;;;0.40;0.40;;;;;;;;;;5033680;28;20036;-52
2021/10/04 13:08:42;;;;;;;0.82;0.40;;;;;;;;;;5033530;28;20026;-52
2021/10/04 13:11:08;;;;;;;0.50;0.45;;;;;;;;;;5033050;28;20029;-52
2021/10/04 13:13:34;;;;;;;0.40;0.40;;;;;;;;;;5033048;28;20034;-52
2021/10/04 13:16:00;;;;;;;0.50;0.50;;;;;;;;;;5033738;28;20546;-52
2021/10/04 13:18:26;;;;;;;1.17;0.75;;;;;;;;;;5033303;28;20021;-52
2021/10/04 13:20:52;;;;;;;0.55;0.55;;;;;;;;;;5033222;28;20443;-52
2021/10/04 13:23:17;;;;;;;1.33;0.60;;;;;;;;;;5033524;28;20025;-52
2021/10/04 13:25:43;;;;;;;0.50;0.50;;;;;;;;;;5032215;28;20443;-52
2021/10/04 13:28:12;;;;;;;0.30;0.30;;;;;;;;;;5033238;28;20033;-52
2021/10/04 13:30:38;;;;;;;0.93;0.80;;;;;;;;;;5033245;28;20040;-52
2021/10/04 13:33:05;;;;;;;0.60;0.60;;;;;;;;;;5033427;28;20088;-52
2021/10/04 13:35:31;;;;;;;0.43;0.43;;;;;;;;;;5032268;28;20049;-52
2021/10/04 13:37:57;;;;;;;1.50;0.77;;;;;;;;;;5033224;28;20030;-52
2021/10/04 13:40:23;;;;;;;0.80;0.80;;;;;;;;;;5032518;28;20523;-52
2021/10/04 13:42:49;;;;;;;0.73;0.73;;;;;;;;;;5033255;28;20030;-52
2021/10/04 13:45:15;;;;;;;2.70;1.40;;;;;;;;;;5032263;28;20517;-53
2021/10/04 13:47:41;;;;;;;2.42;0.88;;;;;;;;;;5032900;28;20104;-52
2021/10/04 13:50:07;;;;;;;0.68;0.60;;;;;;;;;;5032773;28;20072;-52
2021/10/04 13:52:36;;;;;;;0.57;0.57;;;;;;;;;;5032840;28;20403;-52
2021/10/04 13:55:03;;;;;;;0.60;0.60;;;;;;;;;;5030825;28;20456;-52
2021/10/04 13:57:29;;;;;;;0.52;0.52;;;;;;;;;;5032883;28;20486;-52
2021/10/04 13:59:55;;;;;;;1.27;0.80;;;;;;;;;;5037382;28;20021;-52
2021/10/04 14:02:22;;;;;;;5.07;0.65;;;;;;;;;;5051990;28;20032;-52
2021/10/04 14:04:48;;;;;;;0.80;0.80;;;;;;;;;;5051931;28;20101;-52
2021/10/04 14:07:14;;;;;;;1.65;0.95;;;;;;;;;;5046918;28;20061;-52
2021/10/04 14:09:40;;;;;;;1.10;1.00;;;;;;;;;;5031422;28;20427;-52
2021/10/04 14:12:06;;;;;;;1.15;0.75;;;;;;;;;;5032993;28;20399;-52
2021/10/04 14:14:32;;;;;;;1.30;0.85;;;;;;;;;;5031808;28;20033;-52
2021/10/04 14:16:58;;;;;;;0.75;0.75;;;;;;;;;;5032561;28;20029;-52
2021/10/04 14:19:24;;;;;;;0.57;0.57;;;;;;;;;;5032655;28;20021;-52
2021/10/04 14:21:50;;;;;;;0.85;0.82;;;;;;;;;;5032534;28;20082;-52
2021/10/04 14:24:16;;;;;;;1.38;1.00;;;;;;;;;;5031708;28;20355;-52
2021/10/04 14:26:42;;;;;;;0.95;0.60;;;;;;;;;;5032717;28;20030;-52
2021/10/04 14:29:08;;;;;;;1.02;0.70;;;;;;;;;;5032542;28;20022;-52
2021/10/04 14:31:34;;;;;;;1.63;0.77;;;;;;;;;;5032385;28;20363;-52
2021/10/04 14:34:00;;;;;;;1.08;0.73;;;;;;;;;;5032048;28;20076;-52
2021/10/04 14:36:26;;;;;;;0.60;0.60;;;;;;;;;;5032284;28;20037;-52
2021/10/04 14:38:53;;;;;;;1.13;0.80;;;;;;;;;;5032581;28;20109;-52
2021/10/04 14:41:20;;;;;;;1.40;0.80;;;;;;;;;;5032468;28;20344;-52
2021/10/04 14:43:47;;;;;;;0.80;0.80;;;;;;;;;;5031639;28;20057;-52